Time;durP1;ratioP1;P1;durP2;ratioP2;P2;SDS_P1;SDS_P2;PMS_P1;PMS_P2;Temp;Humidity;BMP_temperature;BMP_pressure;BME280_temperature;BME280_humidity;BME280_pressure;Samples;Min_cycle;Max_cycle;Signal;HPM_P1;HPM_P2
2022/04/16 00:00:55;;;;;;;6.07;2.30;;;;;;;7.73;52.46;102835.78;5024173;28;98853;-69
2022/04/16 00:03:22;;;;;;;6.43;2.65;;;;;;;7.64;52.79;102832.19;5032576;28;98877;-70
2022/04/16 00:05:50;;;;;;;4.75;2.28;;;;;;;7.81;52.78;102833.22;5029005;28;96805;-69
2022/04/16 00:08:17;;;;;;;7.72;2.10;;;;;;;7.57;53.21;102832.13;5027778;28;97245;-71
2022/04/16 00:10:43;;;;;;;7.63;2.00;;;;;;;7.95;52.42;102839.47;5031577;28;101339;-70
2022/04/16 00:13:09;;;;;;;6.10;1.95;;;;;;;8.10;52.27;102831.72;5030717;28;98895;-71
2022/04/16 00:15:38;;;;;;;7.55;3.50;;;;;;;8.32;51.37;102827.53;5030686;28;97565;-70
2022/04/16 00:18:05;;;;;;;10.18;3.40;;;;;;;8.44;51.35;102824.97;5033054;28;98865;-70
2022/04/16 00:20:31;;;;;;;5.00;1.58;;;;;;;7.99;52.25;102836.91;5027018;28;99323;-73
2022/04/16 00:22:58;;;;;;;9.57;1.92;;;;;;;8.14;52.19;102832.63;5028857;28;98835;-70
2022/04/16 00:25:24;;;;;;;6.40;1.70;;;;;;;8.05;52.50;102840.44;5033291;28;97984;-70
2022/04/16 00:27:52;;;;;;;5.40;1.60;;;;;;;8.07;52.19;102838.72;5027915;27;96878;-70
2022/04/16 00:30:19;;;;;;;6.43;1.67;;;;;;;7.87;52.85;102830.66;5027530;28;97644;-69
2022/04/16 00:32:47;;;;;;;4.65;1.60;;;;;;;7.56;53.72;102839.97;5024797;28;99526;-70
2022/04/16 00:35:15;;;;;;;4.13;1.92;;;;;;;7.73;53.07;102837.53;5033279;28;97521;-69
2022/04/16 00:37:41;;;;;;;7.00;1.65;;;;;;;8.03;52.93;102835.16;5022533;27;98612;-70
2022/04/16 00:40:09;;;;;;;6.20;1.73;;;;;;;7.95;52.60;102843.00;5027021;27;99321;-70
2022/04/16 00:42:38;;;;;;;8.02;1.48;;;;;;;7.62;53.70;102837.41;5027583;28;99229;-70
2022/04/16 00:45:06;;;;;;;3.53;1.40;;;;;;;7.58;53.99;102848.78;5033551;28;97060;-69
2022/04/16 00:47:32;;;;;;;2.45;1.20;;;;;;;7.18;54.62;102850.97;5025966;28;97814;-71
2022/04/16 00:50:00;;;;;;;6.10;1.67;;;;;;;7.33;54.54;102852.91;5032094;28;99006;-69
2022/04/16 00:52:27;;;;;;;8.68;1.80;;;;;;;7.50;54.05;102853.97;5025738;28;98938;-70
2022/04/16 00:54:55;;;;;;;5.60;1.42;;;;;;;7.46;54.50;102846.03;5032112;28;97787;-69
2022/04/16 00:57:23;;;;;;;3.40;1.20;;;;;;;7.06;55.80;102855.22;5025138;28;96915;-71
2022/04/16 00:59:49;;;;;;;4.32;1.30;;;;;;;7.24;55.66;102844.03;5030466;28;98962;-70
2022/04/16 01:02:16;;;;;;;5.47;1.50;;;;;;;7.54;54.74;102852.25;5021312;28;99607;-71
2022/04/16 01:04:43;;;;;;;4.55;1.30;;;;;;;7.55;55.09;102848.75;5026144;28;97690;-70
2022/04/16 01:07:11;;;;;;;6.07;1.80;;;;;;;7.37;55.07;102849.44;5025757;28;96828;-70
2022/04/16 01:09:37;;;;;;;7.03;1.75;;;;;;;7.68;55.22;102844.50;5024914;28;98922;-70
2022/04/16 01:12:04;;;;;;;5.00;1.58;;;;;;;7.34;55.87;102857.31;5031517;28;98808;-70
2022/04/16 01:14:31;;;;;;;8.38;1.30;;;;;;;7.45;55.49;102857.41;5024125;28;96694;-70
2022/04/16 01:16:58;;;;;;;4.78;1.50;;;;;;;7.53;55.28;102858.38;5029922;28;96765;-69
2022/04/16 01:19:24;;;;;;;6.88;2.03;;;;;;;7.67;55.11;102863.78;5027705;28;99396;-69
2022/04/16 01:21:51;;;;;;;4.20;1.48;;;;;;;7.66;55.03;102867.28;5029860;28;98162;-70
2022/04/16 01:24:19;;;;;;;4.22;1.30;;;;;;;7.35;55.26;102882.72;5032526;28;97113;-70
2022/04/16 01:26:46;;;;;;;4.65;1.48;;;;;;;7.68;54.98;102866.41;5031009;28;96789;-70
2022/04/16 01:29:13;;;;;;;6.57;2.33;;;;;;;7.26;56.39;102877.38;5025542;28;101914;-69
2022/04/16 01:31:39;;;;;;;5.20;1.40;;;;;;;7.32;56.35;102866.91;5027318;28;98817;-70
2022/04/16 01:34:06;;;;;;;8.45;1.50;;;;;;;7.59;55.34;102861.97;5033533;28;96597;-69
2022/04/16 01:36:34;;;;;;;4.13;1.40;;;;;;;7.55;55.14;102869.78;5043634;28;96835;-69
2022/04/16 01:39:01;;;;;;;7.47;1.25;;;;;;;7.55;55.15;102865.41;5040634;27;96855;-69
2022/04/16 01:41:29;;;;;;;5.78;1.23;;;;;;;7.76;54.99;102858.59;5033096;27;98895;-70
2022/04/16 01:43:56;;;;;;;10.18;1.60;;;;;;;7.51;55.59;102868.88;5025889;28;96821;-70
2022/04/16 01:46:22;;;;;;;5.30;1.60;;;;;;;7.29;56.08;102877.38;5026652;28;97032;-70
2022/04/16 01:48:49;;;;;;;5.70;1.58;;;;;;;7.47;55.74;102872.38;5027533;28;99038;-70
2022/04/16 01:51:17;;;;;;;6.75;1.48;;;;;;;6.92;57.05;102876.06;5028066;28;98872;-69
2022/04/16 01:53:44;;;;;;;5.95;1.38;;;;;;;7.16;56.76;102872.84;5027339;28;96803;-69
2022/04/16 01:56:10;;;;;;;7.00;1.50;;;;;;;7.20;56.41;102875.56;5026088;28;96842;-69
2022/04/16 01:58:38;;;;;;;4.60;1.38;;;;;;;6.95;56.95;102868.22;5026677;28;99040;-70
2022/04/16 02:01:05;;;;;;;5.03;1.30;;;;;;;6.89;57.35;102869.91;5025161;28;99006;-70
2022/04/16 02:03:33;;;;;;;5.72;1.40;;;;;;;7.31;56.43;102874.78;5033354;28;97044;-70
2022/04/16 02:05:59;;;;;;;5.40;1.60;;;;;;;7.04;56.93;102881.47;5030769;28;96748;-70
2022/04/16 02:08:26;;;;;;;6.28;1.20;;;;;;;7.09;57.20;102884.16;5032424;28;98937;-69
2022/04/16 02:10:52;;;;;;;5.50;1.58;;;;;;;6.95;57.21;102885.75;5028878;28;98917;-70
2022/04/16 02:13:19;;;;;;;2.78;1.23;;;;;;;6.83;58.06;102880.31;5031761;28;96785;-69
2022/04/16 02:15:47;;;;;;;6.55;1.48;;;;;;;6.92;57.96;102880.44;5031125;28;96986;-71
2022/04/16 02:18:13;;;;;;;8.57;1.80;;;;;;;6.59;58.42;102880.84;5025038;28;98947;-69
2022/04/16 02:20:43;;;;;;;4.80;1.13;;;;;;;6.56;58.83;102881.69;5030069;28;98965;-69
2022/04/16 02:23:11;;;;;;;7.43;1.52;;;;;;;6.83;57.98;102889.06;5025637;27;96811;-70
2022/04/16 02:25:41;;;;;;;5.15;1.50;;;;;;;6.77;58.37;102888.97;5028675;28;96847;-69
2022/04/16 02:28:08;;;;;;;5.97;1.50;;;;;;;6.37;58.69;102891.00;5028342;28;99086;-70
2022/04/16 02:30:34;;;;;;;7.93;1.42;;;;;;;6.53;59.32;102894.78;5031049;28;98975;-69
2022/04/16 02:33:02;;;;;;;3.97;1.58;;;;;;;6.49;59.11;102900.84;5028636;28;96823;-70
2022/04/16 02:35:28;;;;;;;4.97;1.80;;;;;;;6.53;58.97;102892.16;5036546;28;96789;-69
2022/04/16 02:37:54;;;;;;;9.50;1.35;;;;;;;6.38;59.03;102898.03;5027860;27;98942;-69
2022/04/16 02:40:21;;;;;;;5.75;1.55;;;;;;;6.47;58.70;102905.19;5026962;28;99173;-69
2022/04/16 02:42:47;;;;;;;5.93;1.63;;;;;;;6.57;59.06;102904.44;5028654;28;96731;-69
2022/04/16 02:47:59;;;;;;;6.70;1.88;;;;;;;6.32;58.90;102910.19;5032755;28;97215;-70
2022/04/16 02:50:28;;;;;;;4.30;1.50;;;;;;;6.66;58.42;102903.72;5034881;28;98780;-70
2022/04/16 02:52:55;;;;;;;5.68;1.58;;;;;;;6.46;59.03;102906.03;5035284;28;96814;-69
2022/04/16 02:55:22;;;;;;;5.88;1.65;;;;;;;6.24;59.77;102914.41;5025565;28;96861;-70
2022/04/16 02:57:50;;;;;;;3.40;1.50;;;;;;;6.55;58.42;102927.22;5032075;28;102024;-69
2022/04/16 03:00:17;;;;;;;7.03;1.67;;;;;;;6.81;58.26;102924.97;5026241;28;98881;-69
2022/04/16 03:02:43;;;;;;;5.80;2.20;;;;;;;6.85;58.34;102920.63;5032151;28;96702;-69
2022/04/16 03:05:11;;;;;;;8.57;1.75;;;;;;;6.55;58.43;102921.94;5026419;28;97380;-71
2022/04/16 03:07:39;;;;;;;7.18;1.50;;;;;;;6.79;57.84;102924.06;5030632;28;96855;-70
2022/04/16 03:10:08;;;;;;;8.48;1.55;;;;;;;7.05;57.25;102929.69;5028713;28;98992;-70
2022/04/16 03:12:41;;;;;;;5.97;1.85;;;;;;;6.73;57.97;102932.72;5030103;28;96734;-70
2022/04/16 03:17:54;;;;;;;6.18;1.27;;;;;;;6.72;58.28;102941.47;5029548;28;97159;-70
2022/04/16 03:20:21;;;;;;;5.68;1.60;;;;;;;6.79;58.39;102945.06;5026263;28;100470;-69
2022/04/16 03:22:48;;;;;;;4.80;1.38;;;;;;;6.59;58.79;102943.88;5031984;28;96811;-69
2022/04/16 03:25:15;;;;;;;3.55;1.40;;;;;;;6.79;58.65;102945.97;5030194;28;97347;-68
2022/04/16 03:27:41;;;;;;;7.20;2.15;;;;;;;6.61;59.20;102948.31;5025472;28;99139;-68
2022/04/16 03:30:09;;;;;;;7.45;1.67;;;;;;;6.39;59.51;102961.94;5026959;28;99052;-69
2022/04/16 03:32:38;;;;;;;6.03;1.55;;;;;;;7.03;58.01;102962.94;5034580;28;96788;-71
2022/04/16 03:35:06;;;;;;;6.80;2.00;;;;;;;7.03;57.77;102960.31;5035283;27;96764;-69
2022/04/16 03:37:32;;;;;;;3.35;1.70;;;;;;;6.77;58.82;102968.69;5033413;28;98843;-70
2022/04/16 03:40:00;;;;;;;8.85;1.70;;;;;;;6.57;58.79;102966.59;5036177;27;99203;-70
2022/04/16 03:42:26;;;;;;;5.40;1.70;;;;;;;6.72;59.12;102973.00;5034769;27;96813;-70
2022/04/16 03:44:53;;;;;;;9.05;2.00;;;;;;;7.31;56.78;102970.34;5029187;28;98028;-70
2022/04/16 03:47:19;;;;;;;4.47;1.50;;;;;;;6.50;59.09;102972.66;5032855;28;99223;-70
2022/04/16 03:49:45;;;;;;;10.13;1.65;;;;;;;6.88;58.13;102974.13;5029466;28;98044;-69
2022/04/16 03:52:12;;;;;;;6.63;1.30;;;;;;;6.70;58.42;102973.81;5028942;28;96902;-70
2022/04/16 04:00:09;;;;;;;7.50;1.60;;;;;;;7.30;56.83;102981.72;5026411;28;97074;-70
2022/04/16 04:02:37;;;;;;;6.35;1.42;;;;;;;7.49;56.17;102978.47;5026638;28;96867;-70
2022/04/16 04:05:05;;;;;;;4.60;1.50;;;;;;;8.12;54.42;102982.72;5035126;28;96758;-69
2022/04/16 04:07:31;;;;;;;5.15;1.80;;;;;;;8.05;54.47;102982.63;5023034;28;99139;-70
2022/04/16 04:09:58;;;;;;;8.90;2.17;;;;;;;8.26;54.33;102989.00;5026533;28;98976;-69
2022/04/16 04:12:26;;;;;;;4.07;1.70;;;;;;;7.80;54.93;102994.66;5029165;28;96797;-69
2022/04/16 04:14:52;;;;;;;6.50;2.25;;;;;;;8.25;54.36;102989.88;5032136;28;96852;-69
2022/04/16 04:17:22;;;;;;;4.85;1.70;;;;;;;8.14;54.42;102999.38;5023808;28;98899;-69
2022/04/16 04:19:48;;;;;;;5.78;1.45;;;;;;;7.29;56.83;103008.88;5034510;28;98834;-70
2022/04/16 04:22:16;;;;;;;7.30;1.45;;;;;;;7.27;57.31;103008.00;5023030;28;98838;-69
2022/04/16 04:24:44;;;;;;;4.78;2.03;;;;;;;7.51;56.86;103013.59;5030535;28;96933;-69
2022/04/16 04:27:11;;;;;;;9.90;1.98;;;;;;;7.36;57.32;103004.59;5024954;28;98913;-69
2022/04/16 04:29:39;;;;;;;7.00;1.63;;;;;;;7.55;56.41;103011.84;5029722;28;99305;-69
2022/04/16 04:32:06;;;;;;;5.68;1.83;;;;;;;7.75;55.97;103015.63;5025573;28;96792;-70
2022/04/16 04:34:33;;;;;;;8.57;1.80;;;;;;;7.55;56.27;103019.75;5024282;28;97105;-70
2022/04/16 04:36:59;;;;;;;6.68;2.10;;;;;;;7.31;57.38;103022.94;5028236;28;99200;-69
2022/04/16 04:39:25;;;;;;;4.65;2.15;;;;;;;6.93;58.29;103034.66;5031718;27;99315;-70
2022/04/16 04:41:52;;;;;;;8.75;1.73;;;;;;;7.21;57.79;103026.31;5031084;27;96979;-70
2022/04/16 04:44:19;;;;;;;8.55;2.17;;;;;;;7.22;58.08;103033.31;5027218;28;96964;-70
2022/04/16 04:46:46;;;;;;;6.43;1.83;;;;;;;7.37;57.70;103032.66;5032716;27;98208;-70
2022/04/16 04:49:13;;;;;;;8.60;2.17;;;;;;;7.79;56.25;103030.59;5032768;28;98835;-69
2022/04/16 04:51:40;;;;;;;8.48;1.90;;;;;;;8.31;55.12;103039.13;5034243;28;97572;-70
2022/04/16 04:54:07;;;;;;;6.28;1.73;;;;;;;8.24;54.77;103038.13;5033953;28;96904;-70
2022/04/16 04:56:34;;;;;;;4.85;1.75;;;;;;;8.30;54.25;103038.22;5030621;28;98912;-70
2022/04/16 04:59:01;;;;;;;8.02;2.25;;;;;;;7.73;55.59;103041.06;5025016;28;99529;-70
2022/04/16 05:01:27;;;;;;;5.20;2.03;;;;;;;7.82;55.88;103042.91;5032830;28;96780;-70
2022/04/16 05:03:55;;;;;;;5.53;1.50;;;;;;;7.65;55.82;103041.81;5026578;28;97697;-69
2022/04/16 05:06:21;;;;;;;7.38;1.83;;;;;;;7.90;56.01;103038.63;5031052;28;99147;-69
2022/04/16 05:08:57;;;;;;;14.40;2.30;;;;;;;7.97;55.66;103048.34;5024932;28;98896;-70
2022/04/16 05:11:24;;;;;;;8.02;2.38;;;;;;;7.91;55.70;103049.19;5031512;28;97844;-70
2022/04/16 05:13:50;;;;;;;3.85;1.80;;;;;;;8.17;54.80;103053.84;5025490;28;97213;-70
2022/04/16 05:16:17;;;;;;;6.88;1.70;;;;;;;8.83;53.07;103051.03;5028142;28;99616;-69
2022/04/16 05:18:43;;;;;;;4.75;1.50;;;;;;;8.79;52.63;103046.59;5025917;28;98787;-68
2022/04/16 05:21:11;;;;;;;7.07;1.55;;;;;;;8.49;53.26;103062.13;5021432;28;98750;-71
2022/04/16 05:23:39;;;;;;;11.80;2.50;;;;;;;7.81;55.01;103062.22;5024185;28;97865;-69
2022/04/16 05:26:07;;;;;;;7.90;2.10;;;;;;;7.88;55.47;103064.03;5026770;28;98917;-69
2022/04/16 05:28:33;;;;;;;4.10;1.52;;;;;;;7.33;56.56;103078.22;5025005;28;98822;-70
2022/04/16 05:31:00;;;;;;;4.32;1.63;;;;;;;7.92;55.85;103079.03;5032948;28;96776;-70
2022/04/16 05:36:12;;;;;;;6.05;1.30;;;;;;;7.76;56.20;103090.19;5029481;28;97384;-69
2022/04/16 05:38:38;;;;;;;6.75;1.65;;;;;;;8.61;54.16;103088.59;5035229;27;99535;-69
2022/04/16 05:41:05;;;;;;;8.07;2.05;;;;;;;9.48;51.50;103085.78;5036690;27;96749;-70
2022/04/16 05:43:31;;;;;;;4.65;1.88;;;;;;;9.14;51.73;103081.13;5027842;28;96858;-70
2022/04/16 05:45:57;;;;;;;5.40;1.88;;;;;;;8.56;53.52;103092.94;5031225;28;100895;-70
2022/04/16 05:48:24;;;;;;;5.80;1.77;;;;;;;8.39;53.93;103103.31;5025165;28;97615;-70
2022/04/16 05:50:50;;;;;;;8.77;1.65;;;;;;;8.87;52.63;103094.97;5032275;28;96782;-70
2022/04/16 05:53:19;;;;;;;4.90;1.65;;;;;;;9.21;51.82;103096.13;5031441;28;96751;-70
2022/04/16 05:55:48;;;;;;;8.40;1.88;;;;;;;8.47;53.47;103109.53;5026414;28;99326;-70
2022/04/16 05:58:15;;;;;;;4.35;1.52;;;;;;;8.53;53.46;103100.81;5028611;28;98851;-70
2022/04/16 06:00:41;;;;;;;8.30;1.67;;;;;;;8.75;52.69;103105.41;5027342;28;96684;-70
2022/04/16 06:03:08;;;;;;;6.30;1.70;;;;;;;8.68;52.61;103098.31;5032232;28;96672;-70
2022/04/16 06:05:35;;;;;;;6.68;1.80;;;;;;;8.22;53.60;103108.34;5030359;28;98863;-69
2022/04/16 06:08:02;;;;;;;8.45;2.10;;;;;;;8.54;53.09;103116.63;5029566;28;97810;-70
2022/04/16 06:10:29;;;;;;;6.53;1.70;;;;;;;8.85;52.55;103106.41;5027586;28;97152;-70
2022/04/16 06:12:56;;;;;;;6.93;1.98;;;;;;;9.29;51.08;103101.47;5032325;28;96791;-69
2022/04/16 06:15:23;;;;;;;6.00;2.08;;;;;;;9.11;51.49;103100.47;5032248;28;101671;-69
2022/04/16 06:17:49;;;;;;;7.13;2.15;;;;;;;9.22;51.49;103091.75;5030520;28;99470;-71
2022/04/16 06:20:16;;;;;;;8.32;3.15;;;;;;;8.76;52.10;103096.66;5034324;28;96750;-71
2022/04/16 06:22:43;;;;;;;6.80;2.70;;;;;;;9.80;49.63;103096.50;5031335;28;96768;-71
2022/04/16 06:25:10;;;;;;;7.80;2.78;;;;;;;8.84;51.24;103087.06;5034712;28;98220;-69
2022/04/16 06:27:39;;;;;;;7.90;2.60;;;;;;;8.88;52.00;103098.50;5028869;28;98831;-70
2022/04/16 06:30:08;;;;;;;11.50;2.80;;;;;;;9.65;50.04;103092.94;5027821;28;96587;-71
2022/04/16 06:32:34;;;;;;;8.07;2.78;;;;;;;9.45;49.81;103098.09;5029981;28;96790;-70
2022/04/16 06:35:01;;;;;;;6.60;2.30;;;;;;;9.24;50.87;103101.47;5029855;28;99426;-69
2022/04/16 06:37:27;;;;;;;6.00;2.30;;;;;;;8.77;51.96;103112.47;5026916;28;99723;-71
2022/04/16 06:39:54;;;;;;;6.63;2.47;;;;;;;8.87;52.24;103110.81;5024615;28;97361;-69
2022/04/16 06:42:20;;;;;;;7.57;2.15;;;;;;;8.77;52.49;103104.56;5033564;28;96885;-70
2022/04/16 06:44:48;;;;;;;6.50;1.88;;;;;;;8.08;54.62;103112.56;5030813;27;98049;-71
2022/04/16 06:47:14;;;;;;;5.95;2.03;;;;;;;8.62;53.21;103114.06;5024874;28;98664;-71
2022/04/16 06:49:41;;;;;;;5.32;1.90;;;;;;;8.43;53.33;103115.63;5024824;28;97831;-69
2022/04/16 06:52:08;;;;;;;4.78;2.15;;;;;;;8.18;54.62;103117.09;5029467;28;96881;-70
2022/04/16 06:54:34;;;;;;;5.68;2.50;;;;;;;8.97;51.85;103117.94;5029584;28;98844;-69
2022/04/16 06:57:01;;;;;;;4.85;2.22;;;;;;;8.85;52.48;103125.75;5028389;28;100712;-70
2022/04/16 06:59:27;;;;;;;7.53;2.63;;;;;;;9.71;50.41;103125.53;5027226;28;96810;-69
2022/04/16 07:01:55;;;;;;;7.40;3.03;;;;;;;10.33;48.48;103128.47;5036756;28;96896;-69
2022/04/16 07:04:21;;;;;;;5.45;2.85;;;;;;;10.65;47.72;103135.59;5033128;28;101243;-70
2022/04/16 07:06:47;;;;;;;7.07;3.17;;;;;;;10.09;48.57;103124.81;5035244;28;98873;-71
2022/04/16 07:09:14;;;;;;;7.00;3.33;;;;;;;11.49;44.96;103116.19;5031741;28;96839;-70
2022/04/16 07:11:41;;;;;;;9.15;3.08;;;;;;;11.36;45.38;103129.44;5032903;28;97048;-69
2022/04/16 07:14:07;;;;;;;4.38;2.90;;;;;;;10.26;47.36;103126.66;5025997;28;98881;-69
2022/04/16 07:16:34;;;;;;;10.98;2.92;;;;;;;9.91;48.05;103133.56;5028731;27;99279;-70
2022/04/16 07:19:01;;;;;;;6.38;3.60;;;;;;;10.25;47.03;103126.66;5026393;28;96842;-69
2022/04/16 07:21:28;;;;;;;7.68;3.40;;;;;;;10.47;46.31;103127.63;5027446;28;96984;-71
2022/04/16 07:23:54;;;;;;;5.53;3.10;;;;;;;9.86;47.39;103130.88;5028804;28;99405;-70
2022/04/16 07:26:21;;;;;;;5.47;3.30;;;;;;;10.66;46.18;103132.94;5026497;28;99133;-71
2022/04/16 07:28:47;;;;;;;5.25;3.13;;;;;;;11.45;44.39;103127.69;5027456;28;96787;-70
2022/04/16 07:31:14;;;;;;;6.65;2.45;;;;;;;11.24;44.57;103125.03;5029216;28;96830;-71
2022/04/16 07:33:40;;;;;;;10.95;2.50;;;;;;;12.07;43.21;103125.78;5029248;28;99324;-70
2022/04/16 07:36:08;;;;;;;7.97;2.47;;;;;;;12.45;41.64;103130.91;5029830;28;98939;-70
2022/04/16 07:38:38;;;;;;;5.18;1.50;;;;;;;12.91;40.30;103123.53;5028622;28;96817;-69
2022/04/16 07:41:04;;;;;;;6.43;1.40;;;;;;;12.95;40.16;103135.84;5030870;28;96880;-70
2022/04/16 07:43:33;;;;;;;4.00;1.40;;;;;;;13.63;37.93;103131.75;5026490;28;99189;-71
2022/04/16 07:46:06;;;;;;;5.38;1.55;;;;;;;11.94;41.41;103140.84;5033040;28;99016;-69
2022/04/16 07:48:33;;;;;;;7.85;1.15;;;;;;;11.68;41.86;103140.00;5025616;28;96836;-69
2022/04/16 07:51:00;;;;;;;4.35;1.10;;;;;;;11.50;42.44;103147.06;5027675;28;97733;-69
2022/04/16 07:53:28;;;;;;;5.85;1.30;;;;;;;11.46;42.86;103149.75;5028297;28;98934;-69
2022/04/16 07:55:54;;;;;;;3.92;1.15;;;;;;;11.16;43.49;103140.91;5030388;28;97713;-70
2022/04/16 07:58:21;;;;;;;6.82;1.27;;;;;;;11.78;41.78;103142.66;5031286;28;97132;-70
2022/04/16 08:00:47;;;;;;;8.00;1.20;;;;;;;11.19;43.04;103148.00;5026172;27;96854;-70
2022/04/16 08:03:14;;;;;;;4.68;1.40;;;;;;;11.62;42.66;103140.03;5030632;27;98924;-70
2022/04/16 08:05:41;;;;;;;7.53;1.23;;;;;;;11.51;43.22;103148.84;5026542;28;98873;-71
2022/04/16 08:08:10;;;;;;;6.20;1.15;;;;;;;12.06;41.08;103153.16;5032526;28;96842;-70
2022/04/16 08:10:37;;;;;;;6.68;1.33;;;;;;;11.45;41.94;103151.50;5028887;28;96732;-69
2022/04/16 08:13:05;;;;;;;7.07;1.10;;;;;;;10.80;43.42;103162.06;5030515;28;100432;-70
2022/04/16 08:15:32;;;;;;;3.45;0.90;;;;;;;10.91;43.04;103165.59;5032985;28;98912;-69
2022/04/16 08:17:58;;;;;;;3.72;0.90;;;;;;;11.91;41.23;103149.69;5023967;28;96739;-69
2022/04/16 08:20:25;;;;;;;5.72;1.35;;;;;;;11.97;41.26;103149.66;5032732;28;98848;-70
2022/04/16 08:22:52;;;;;;;6.03;1.10;;;;;;;12.12;40.78;103154.03;5025293;27;99275;-68
2022/04/16 08:28:06;;;;;;;5.43;1.08;;;;;;;12.90;38.66;103151.81;5027673;28;97088;-70
2022/04/16 08:30:33;;;;;;;4.43;1.58;;;;;;;12.91;38.43;103142.97;5024294;28;96929;-69
2022/04/16 08:33:00;;;;;;;3.85;1.10;;;;;;;11.35;41.63;103151.53;5027195;28;101348;-70
2022/04/16 08:35:26;;;;;;;2.90;0.90;;;;;;;11.89;40.71;103147.91;5027364;28;99787;-70
2022/04/16 08:37:53;;;;;;;2.63;0.73;;;;;;;11.30;40.88;103156.81;5026478;28;97212;-70
2022/04/16 08:40:20;;;;;;;4.13;1.10;;;;;;;11.19;41.44;103158.56;5023790;27;97576;-70
2022/04/16 08:42:48;;;;;;;2.85;0.68;;;;;;;11.84;39.56;103147.03;5027129;27;100661;-70
2022/04/16 08:45:16;;;;;;;3.58;1.10;;;;;;;12.82;38.66;103144.81;5024382;27;98856;-69
2022/04/16 08:47:44;;;;;;;4.28;0.80;;;;;;;13.49;37.24;103142.50;5027011;27;97341;-70
2022/04/16 08:50:13;;;;;;;2.15;0.90;;;;;;;13.52;36.44;103147.81;5027554;27;97948;-69
2022/04/16 08:52:42;;;;;;;2.20;0.90;;;;;;;12.35;38.24;103152.16;5018408;27;99492;-72
2022/04/16 08:55:13;;;;;;;3.05;1.30;;;;;;;12.35;38.85;103156.56;5033951;27;100888;-71
2022/04/16 08:57:45;;;;;;;2.97;1.00;;;;;;;12.81;37.58;103146.56;5022263;27;96686;-70
2022/04/16 09:00:17;;;;;;;1.20;0.73;;;;;;;13.54;34.98;103148.66;5030594;27;96836;-70
2022/04/16 09:02:56;;;;;;;1.60;0.80;;;;;;;14.09;33.84;103138.31;5026367;27;98151;-70
2022/04/16 09:05:26;;;;;;;1.85;0.75;;;;;;;14.06;33.97;103132.13;5026208;27;100582;-70
2022/04/16 09:07:53;;;;;;;1.95;0.88;;;;;;;13.52;34.83;103131.88;5034827;27;96915;-69
2022/04/16 09:10:21;;;;;;;3.58;1.08;;;;;;;14.75;32.70;103128.56;5033871;27;97291;-70
2022/04/16 09:12:51;;;;;;;1.63;0.80;;;;;;;13.68;33.30;103136.13;5036038;27;99306;-70
2022/04/16 09:15:18;;;;;;;1.95;0.90;;;;;;;14.03;32.79;103138.38;5031222;27;98894;-70
2022/04/16 09:17:44;;;;;;;1.15;0.70;;;;;;;14.08;32.44;103138.31;5037285;27;96691;-70
2022/04/16 09:20:14;;;;;;;2.67;0.70;;;;;;;14.01;32.33;103128.66;5030890;27;96788;-69
2022/04/16 09:22:48;;;;;;;3.78;0.93;;;;;;;13.79;32.93;103133.31;5035337;27;101544;-70
2022/04/16 09:25:16;;;;;;;4.38;1.02;;;;;;;13.67;32.44;103139.66;5031652;27;98818;-69
2022/04/16 09:27:49;;;;;;;9.02;0.82;;;;;;;14.60;30.95;103138.53;5030645;27;98296;-74
2022/04/16 09:30:26;;;;;;;1.55;0.60;;;;;;;14.25;30.97;103128.34;5033308;27;96900;-73
2022/04/16 09:32:59;;;;;;;6.38;0.75;;;;;;;13.97;31.68;103122.50;5028824;27;98151;-71
2022/04/16 09:35:33;;;;;;;2.53;0.63;;;;;;;13.72;32.09;103135.16;5025823;27;99129;-70
2022/04/16 09:38:00;;;;;;;4.30;1.00;;;;;;;13.79;31.61;103128.91;5031990;27;97201;-69
2022/04/16 09:40:27;;;;;;;1.27;0.65;;;;;;;13.53;32.13;103122.97;5023071;27;99051;-70
2022/04/16 09:42:57;;;;;;;2.92;0.70;;;;;;;14.18;31.05;103124.88;5025288;27;98602;-70
2022/04/16 09:45:23;;;;;;;1.17;0.70;;;;;;;14.21;30.68;103127.50;5021336;27;98752;-70
2022/04/16 09:47:52;;;;;;;3.40;0.93;;;;;;;15.42;29.80;103118.56;5029673;27;96983;-69
2022/04/16 09:50:20;;;;;;;2.05;0.90;;;;;;;15.82;29.17;103124.03;5032178;27;96923;-69
2022/04/16 09:52:51;;;;;;;1.92;0.82;;;;;;;15.43;29.25;103126.50;5026764;27;98497;-69
2022/04/16 09:55:20;;;;;;;3.58;1.33;;;;;;;13.70;31.95;103134.34;5027745;27;98865;-70
2022/04/16 09:57:50;;;;;;;1.35;0.80;;;;;;;13.64;32.08;103136.19;5027249;28;97176;-70
2022/04/16 10:00:17;;;;;;;2.20;0.60;;;;;;;13.59;30.90;103143.31;5025662;28;97094;-70
2022/04/16 10:02:45;;;;;;;1.15;0.50;;;;;;;13.40;31.69;103140.81;5029348;28;98900;-69
2022/04/16 10:05:12;;;;;;;1.52;0.60;;;;;;;13.52;31.49;103137.19;5027167;28;98841;-70
2022/04/16 10:07:39;;;;;;;2.53;1.08;;;;;;;13.66;31.19;103140.56;5030221;28;96787;-69
2022/04/16 10:10:17;;;;;;;1.52;0.73;;;;;;;13.56;31.26;103141.56;5030926;27;96878;-70
2022/04/16 10:13:00;;;;;;;1.75;0.60;;;;;;;13.88;31.10;103138.56;5027985;27;99135;-69
2022/04/16 10:15:41;;;;;;;1.98;0.68;;;;;;;15.02;32.08;103142.34;5020469;27;99372;-69
2022/04/16 10:18:10;;;;;;;2.63;0.80;;;;;;;14.58;31.51;103146.53;5023057;27;98760;-70
2022/04/16 10:20:36;;;;;;;2.42;0.98;;;;;;;14.66;29.92;103144.66;5029198;27;96894;-70
2022/04/16 10:23:05;;;;;;;1.75;1.00;;;;;;;14.94;31.06;103142.47;5030826;27;100559;-70
2022/04/16 10:25:36;;;;;;;1.52;0.80;;;;;;;14.72;29.95;103136.56;5022566;27;97921;-69
2022/04/16 10:28:06;;;;;;;0.80;0.70;;;;;;;14.10;30.13;103140.06;5024337;28;98476;-69
2022/04/16 10:30:37;;;;;;;1.52;0.80;;;;;;;14.48;31.51;103139.59;5021524;28;96848;-70
2022/04/16 10:33:17;;;;;;;1.70;0.88;;;;;;;13.24;29.67;103133.00;5029228;28;101987;-70
2022/04/16 10:35:54;;;;;;;2.13;0.60;;;;;;;13.93;29.85;103131.41;5019020;27;97686;-70
2022/04/16 10:38:25;;;;;;;1.35;0.70;;;;;;;14.42;29.03;103137.03;5027483;27;97179;-69
2022/04/16 10:40:57;;;;;;;1.27;0.68;;;;;;;14.39;29.16;103134.38;5029111;27;96900;-71
2022/04/16 10:43:31;;;;;;;4.35;0.80;;;;;;;14.19;28.82;103123.97;5029042;27;100577;-70
2022/04/16 10:46:08;;;;;;;2.60;0.80;;;;;;;14.44;28.90;103132.53;5023123;27;98793;-71
2022/04/16 10:48:37;;;;;;;2.58;0.50;;;;;;;14.86;28.55;103124.84;5027385;27;99289;-70
2022/04/16 10:51:04;;;;;;;1.40;0.52;;;;;;;14.57;28.70;103128.81;5033820;27;96879;-70
2022/04/16 10:53:32;;;;;;;1.23;0.60;;;;;;;14.90;27.76;103115.91;5030393;28;100686;-69
2022/04/16 10:56:12;;;;;;;1.55;0.60;;;;;;;14.32;28.90;103114.94;5030315;28;99268;-69
2022/04/16 10:58:40;;;;;;;2.13;0.77;;;;;;;14.54;29.24;103114.69;5029218;28;97276;-70
2022/04/16 11:01:08;;;;;;;0.90;0.60;;;;;;;14.82;28.93;103113.38;5027975;28;96923;-69
2022/04/16 11:03:43;;;;;;;1.70;0.70;;;;;;;14.56;29.38;103120.88;5030754;28;98910;-70
2022/04/16 11:06:10;;;;;;;0.75;0.50;;;;;;;14.33;30.04;103122.03;5036261;28;97727;-69
2022/04/16 11:08:37;;;;;;;1.67;0.82;;;;;;;15.21;29.02;103119.81;5026868;28;96765;-71
2022/04/16 11:11:04;;;;;;;3.85;1.63;;;;;;;14.86;29.13;103107.09;5032216;28;96829;-69
2022/04/16 11:13:34;;;;;;;1.77;0.68;;;;;;;15.33;28.27;103102.72;5024540;28;98959;-69
2022/04/16 11:16:01;;;;;;;3.15;0.68;;;;;;;15.16;28.44;103109.22;5028215;28;98760;-70
2022/04/16 11:18:36;;;;;;;3.20;0.90;;;;;;;15.40;28.44;103113.25;5035126;27;97249;-70
2022/04/16 11:21:07;;;;;;;1.77;0.70;;;;;;;15.15;28.27;103119.94;5041968;27;96983;-70
2022/04/16 11:23:40;;;;;;;1.50;0.60;;;;;;;14.63;29.04;103120.75;5032308;27;97977;-70
2022/04/16 11:34:26;;;;;;;2.38;0.77;;;;;;;14.79;29.69;103109.84;5031842;27;97222;-71
2022/04/16 11:36:53;;;;;;;3.05;0.70;;;;;;;15.25;28.39;103097.53;5032084;27;99449;-70
2022/04/16 11:39:23;;;;;;;2.67;0.50;;;;;;;15.43;28.67;103105.19;5026320;27;97008;-69
2022/04/16 11:41:51;;;;;;;1.52;0.55;;;;;;;15.12;27.36;103106.66;5027473;27;97021;-70
2022/04/16 11:44:29;;;;;;;1.85;0.60;;;;;;;14.88;28.11;103101.75;5026598;27;99173;-71
2022/04/16 11:46:56;;;;;;;1.45;0.55;;;;;;;15.13;28.16;103108.41;5027593;27;98842;-70
2022/04/16 11:49:23;;;;;;;1.20;0.70;;;;;;;15.08;29.54;103112.94;5028182;28;96810;-70
2022/04/16 11:51:50;;;;;;;2.78;0.85;;;;;;;15.13;30.33;103113.75;5027675;28;96826;-69
2022/04/16 11:54:27;;;;;;;1.77;0.32;;;;;;;14.66;30.36;103112.72;5030305;27;102118;-70
2022/04/16 11:56:55;;;;;;;2.13;0.50;;;;;;;14.77;30.63;103115.19;5029242;27;97910;-73